Time,TemperatureF,DewpointF,PressureIn,WindDirection,WindDirectionDegrees,WindSpeedMPH,WindSpeedGustMPH,Humidity,HourlyPrecipIn,Conditions,Clouds,dailyrainin,SolarRadiationWatts/m^2,SoftwareType,DateUTC
2013-04-17 00:02:00,36.0,33.0,-100.00,West,271,2.0,9.0,89,0.00,,,-99.99,0.000000,,2013-04-17 07:02:00,
2013-04-17 00:11:00,33.0,29.0,-100.00,ENE,60,0.0,7.0,86,0.00,,,0.00,0.000000,,2013-04-17 07:11:00,
2013-04-17 00:42:00,33.0,29.0,-100.00,ENE,60,0.0,7.0,86,0.00,,,0.00,0.000000,,2013-04-17 07:42:00,
2013-04-17 00:52:00,33.0,29.0,-100.00,ENE,60,0.0,7.0,86,0.00,,,0.00,0.000000,,2013-04-17 07:52:00,
2013-04-17 01:02:00,33.0,29.0,-100.00,ENE,60,0.0,7.0,86,0.00,,,0.00,0.000000,,2013-04-17 08:02:00,
2013-04-17 01:11:00,32.0,30.0,-100.00,SW,236,1.0,4.0,91,0.00,,,0.00,0.000000,,2013-04-17 08:11:00,
2013-04-17 01:42:00,32.0,30.0,-100.00,SW,236,1.0,4.0,91,0.00,,,0.00,0.000000,,2013-04-17 08:42:00,
2013-04-17 01:52:00,32.0,30.0,-100.00,SW,236,1.0,4.0,91,0.00,,,0.00,0.000000,,2013-04-17 08:52:00,
2013-04-17 02:02:00,32.0,30.0,-100.00,SW,236,1.0,4.0,91,0.00,,,0.00,0.000000,,2013-04-17 09:02:00,
2013-04-17 02:11:00,37.0,35.0,-100.00,WSW,251,3.0,6.0,93,0.00,,,0.00,0.000000,,2013-04-17 09:11:00,
2013-04-17 02:33:00,37.0,35.0,-100.00,WSW,251,3.0,6.0,93,0.00,,,0.00,0.000000,,2013-04-17 09:33:00,
2013-04-17 02:42:00,37.0,35.0,-100.00,WSW,251,3.0,6.0,93,0.00,,,0.00,0.000000,,2013-04-17 09:42:00,
2013-04-17 02:52:00,37.0,35.0,-100.00,WSW,251,3.0,6.0,93,0.00,,,0.00,0.000000,,2013-04-17 09:52:00,
2013-04-17 03:02:00,37.0,35.0,-100.00,WSW,251,3.0,6.0,93,0.00,,,0.00,0.000000,,2013-04-17 10:02:00,
2013-04-17 03:11:00,35.0,33.0,-100.00,NE,47,0.0,7.0,93,0.00,,,0.00,0.000000,,2013-04-17 10:11:00,
2013-04-17 03:33:00,35.0,33.0,-100.00,NE,47,0.0,7.0,93,0.00,,,0.00,0.000000,,2013-04-17 10:33:00,
2013-04-17 03:43:00,35.0,33.0,-100.00,NE,47,0.0,7.0,93,0.00,,,0.00,0.000000,,2013-04-17 10:43:00,
2013-04-17 03:52:00,35.0,33.0,-100.00,NE,47,0.0,7.0,93,0.00,,,0.00,0.000000,,2013-04-17 10:52:00,
2013-04-17 04:02:00,35.0,33.0,-100.00,NE,47,0.0,7.0,93,0.00,,,0.00,0.000000,,2013-04-17 11:02:00,
2013-04-17 04:11:00,36.0,34.0,-100.00,WNW,292,0.0,7.0,93,0.00,,,0.00,0.000000,,2013-04-17 11:11:00,
2013-04-17 04:32:00,36.0,34.0,-100.00,WNW,292,0.0,7.0,93,0.00,,,0.00,0.000000,,2013-04-17 11:32:00,
2013-04-17 04:42:00,36.0,34.0,-100.00,WNW,292,0.0,7.0,93,0.00,,,0.00,0.000000,,2013-04-17 11:42:00,
2013-04-17 04:52:00,36.0,34.0,-100.00,WNW,292,0.0,7.0,93,0.00,,,0.00,0.000000,,2013-04-17 11:52:00,
2013-04-17 05:02:00,36.0,34.0,-100.00,WNW,292,0.0,7.0,93,0.00,,,0.00,0.000000,,2013-04-17 12:02:00,
2013-04-17 05:11:00,38.0,36.0,-100.00,North,356,0.0,5.0,94,0.00,,,0.00,0.000000,,2013-04-17 12:11:00,
2013-04-17 05:32:00,38.0,36.0,-100.00,North,356,0.0,5.0,94,0.00,,,0.00,0.000000,,2013-04-17 12:32:00,
2013-04-17 05:42:00,38.0,36.0,-100.00,North,356,0.0,5.0,94,0.00,,,0.00,0.000000,,2013-04-17 12:42:00,
2013-04-17 05:52:00,38.0,36.0,-100.00,North,356,0.0,5.0,94,0.00,,,0.00,0.000000,,2013-04-17 12:52:00,
2013-04-17 06:02:00,38.0,36.0,-100.00,North,356,0.0,5.0,94,0.00,,,0.00,0.000000,,2013-04-17 13:02:00,
2013-04-17 06:11:00,37.0,35.0,-100.00,NNW,333,0.0,0.0,94,0.00,,,0.00,0.000000,,2013-04-17 13:11:00,
2013-04-17 06:32:00,37.0,35.0,-100.00,NNW,333,0.0,0.0,94,0.00,,,0.00,0.000000,,2013-04-17 13:32:00,
2013-04-17 06:42:00,37.0,35.0,-100.00,NNW,333,0.0,0.0,94,0.00,,,0.00,0.000000,,2013-04-17 13:42:00,
2013-04-17 06:52:00,37.0,35.0,-100.00,NNW,333,0.0,0.0,94,0.00,,,0.00,0.000000,,2013-04-17 13:52:00,
2013-04-17 07:02:00,37.0,35.0,-100.00,NNW,333,0.0,0.0,94,0.00,,,0.00,0.000000,,2013-04-17 14:02:00,
2013-04-17 07:32:00,32.0,30.0,-100.00,SW,231,0.0,0.0,93,0.00,,,0.00,43.000000,,2013-04-17 14:32:00,
2013-04-17 07:43:00,32.0,30.0,-100.00,SW,231,0.0,0.0,93,0.00,,,0.00,43.000000,,2013-04-17 14:43:00,
2013-04-17 07:52:00,32.0,30.0,-100.00,SW,231,0.0,0.0,93,0.00,,,0.00,43.000000,,2013-04-17 14:52:00,
2013-04-17 08:02:00,32.0,30.0,-100.00,SW,231,0.0,0.0,93,0.00,,,0.00,43.000000,,2013-04-17 15:02:00,
2013-04-17 08:33:00,40.0,36.0,-100.00,SSE,159,0.0,0.0,87,-99.99,,,0.00,320.000000,,2013-04-17 15:33:00,
2013-04-17 08:43:00,40.0,36.0,-100.00,SSE,159,0.0,0.0,87,-99.99,,,0.00,320.000000,,2013-04-17 15:43:00,
2013-04-17 08:53:00,40.0,36.0,-100.00,SSE,159,0.0,0.0,87,-99.99,,,0.00,320.000000,,2013-04-17 15:53:00,
2013-04-17 09:11:00,48.0,22.0,-100.00,NW,326,7.0,12.0,35,0.00,,,0.00,594.000000,,2013-04-17 16:11:00,
2013-04-17 09:32:00,48.0,22.0,-100.00,NW,326,7.0,12.0,35,0.00,,,0.00,594.000000,,2013-04-17 16:32:00,
2013-04-17 09:42:00,48.0,22.0,-100.00,NW,326,7.0,12.0,35,0.00,,,0.00,594.000000,,2013-04-17 16:42:00,
2013-04-17 09:52:00,48.0,22.0,-100.00,NW,326,7.0,12.0,35,0.00,,,0.00,594.000000,,2013-04-17 16:52:00,
2013-04-17 10:02:00,48.0,22.0,-100.00,NW,326,7.0,12.0,35,0.00,,,0.00,594.000000,,2013-04-17 17:02:00,
2013-04-17 10:11:00,54.0,24.0,-100.00,NW,306,8.0,14.0,31,0.00,,,0.00,849.000000,,2013-04-17 17:11:00,
2013-04-17 10:33:00,54.0,24.0,-100.00,NW,306,8.0,14.0,31,0.00,,,0.00,849.000000,,2013-04-17 17:33:00,
2013-04-17 10:42:00,54.0,24.0,-100.00,NW,306,8.0,14.0,31,0.00,,,0.00,849.000000,,2013-04-17 17:42:00,
2013-04-17 10:52:00,54.0,24.0,-100.00,NW,306,8.0,14.0,31,0.00,,,0.00,849.000000,,2013-04-17 17:52:00,
2013-04-17 11:02:00,54.0,24.0,-100.00,NW,306,8.0,14.0,31,0.00,,,0.00,849.000000,,2013-04-17 18:02:00,
2013-04-17 11:11:00,56.0,23.0,-100.00,WNW,288,8.0,18.0,28,0.00,,,0.00,1045.000000,,2013-04-17 18:11:00,
2013-04-17 11:33:00,56.0,23.0,-100.00,WNW,288,8.0,18.0,28,0.00,,,0.00,1045.000000,,2013-04-17 18:33:00,
2013-04-17 11:42:00,56.0,23.0,-100.00,WNW,288,8.0,18.0,28,0.00,,,0.00,1045.000000,,2013-04-17 18:42:00,
2013-04-17 11:52:00,56.0,23.0,-100.00,WNW,288,8.0,18.0,28,0.00,,,0.00,1045.000000,,2013-04-17 18:52:00,
2013-04-17 12:02:00,56.0,23.0,-100.00,WNW,288,8.0,18.0,28,0.00,,,0.00,1045.000000,,2013-04-17 19:02:00,
2013-04-17 12:11:00,59.0,24.0,-100.00,West,278,6.0,14.0,26,0.00,,,0.00,1166.000000,,2013-04-17 19:11:00,
2013-04-17 12:42:00,59.0,24.0,-100.00,West,278,6.0,14.0,26,0.00,,,0.00,1166.000000,,2013-04-17 19:42:00,
2013-04-17 12:52:00,59.0,24.0,-100.00,West,278,6.0,14.0,26,0.00,,,0.00,1166.000000,,2013-04-17 19:52:00,
2013-04-17 13:02:00,59.0,24.0,-100.00,West,278,6.0,14.0,26,0.00,,,0.00,1166.000000,,2013-04-17 20:02:00,
2013-04-17 13:11:00,60.0,21.0,-100.00,WNW,290,8.0,16.0,22,0.00,,,0.00,1219.000000,,2013-04-17 20:11:00,
2013-04-17 13:33:00,60.0,21.0,-100.00,WNW,290,8.0,16.0,22,0.00,,,0.00,1219.000000,,2013-04-17 20:33:00,
2013-04-17 13:42:00,60.0,21.0,-100.00,WNW,290,8.0,16.0,22,0.00,,,0.00,1219.000000,,2013-04-17 20:42:00,
2013-04-17 13:52:00,60.0,21.0,-100.00,WNW,290,8.0,16.0,22,0.00,,,0.00,1219.000000,,2013-04-17 20:52:00,
2013-04-17 14:02:00,60.0,21.0,-100.00,WNW,290,8.0,16.0,22,0.00,,,0.00,1219.000000,,2013-04-17 21:02:00,
2013-04-17 14:11:00,62.0,19.0,-100.00,NE,55,5.0,16.0,19,0.00,,,0.00,1195.000000,,2013-04-17 21:11:00,
2013-04-17 14:43:00,62.0,19.0,-100.00,NE,55,5.0,16.0,19,0.00,,,0.00,1195.000000,,2013-04-17 21:43:00,
2013-04-17 14:53:00,62.0,19.0,-100.00,NE,55,5.0,16.0,19,0.00,,,0.00,1195.000000,,2013-04-17 21:53:00,
2013-04-17 15:02:00,62.0,19.0,-100.00,NE,55,5.0,16.0,19,0.00,,,0.00,1195.000000,,2013-04-17 22:02:00,
2013-04-17 15:11:00,65.0,19.0,-100.00,WSW,248,6.0,17.0,17,0.00,,,0.00,1102.000000,,2013-04-17 22:11:00,
2013-04-17 15:43:00,65.0,19.0,-100.00,WSW,248,6.0,17.0,17,0.00,,,0.00,1102.000000,,2013-04-17 22:43:00,
2013-04-17 15:53:00,65.0,19.0,-100.00,WSW,248,6.0,17.0,17,0.00,,,0.00,1102.000000,,2013-04-17 22:53:00,
2013-04-17 16:02:00,65.0,19.0,-100.00,WSW,248,6.0,17.0,17,0.00,,,0.00,1102.000000,,2013-04-17 23:02:00,
2013-04-17 16:32:00,65.0,22.0,-100.00,West,273,9.0,17.0,19,0.00,,,0.00,923.000000,,2013-04-17 23:32:00,
2013-04-17 16:42:00,65.0,22.0,-100.00,West,273,9.0,17.0,19,0.00,,,0.00,923.000000,,2013-04-17 23:42:00,
2013-04-17 18:11:00,61.0,21.0,-100.00,West,271,8.0,18.0,21,-99.99,,,-99.99,412.000000,,2013-04-18 01:11:00,
2013-04-17 18:32:00,61.0,21.0,-100.00,West,271,8.0,18.0,21,-99.99,,,-99.99,412.000000,,2013-04-18 01:32:00,
2013-04-17 18:42:00,61.0,21.0,-100.00,West,271,8.0,18.0,21,-99.99,,,-99.99,412.000000,,2013-04-18 01:42:00,
2013-04-17 18:52:00,61.0,21.0,-100.00,West,271,8.0,18.0,21,-99.99,,,-99.99,412.000000,,2013-04-18 01:52:00,
2013-04-17 19:02:00,61.0,21.0,-100.00,West,271,8.0,18.0,21,-99.99,,,-99.99,412.000000,,2013-04-18 02:02:00,
2013-04-17 19:11:00,55.0,19.0,-100.00,West,278,8.0,15.0,24,-99.99,,,0.00,136.000000,,2013-04-18 02:11:00,
2013-04-17 19:32:00,55.0,19.0,-100.00,West,278,8.0,15.0,24,-99.99,,,0.00,136.000000,,2013-04-18 02:32:00,
2013-04-17 19:42:00,55.0,19.0,-100.00,West,278,8.0,15.0,24,-99.99,,,0.00,136.000000,,2013-04-18 02:42:00,
2013-04-17 19:52:00,55.0,19.0,-100.00,West,278,8.0,15.0,24,-99.99,,,0.00,136.000000,,2013-04-18 02:52:00,
2013-04-17 20:02:00,55.0,19.0,-100.00,West,278,8.0,15.0,24,-99.99,,,0.00,136.000000,,2013-04-18 03:02:00,
2013-04-17 20:11:00,47.0,19.0,-100.00,North,357,0.0,13.0,33,0.00,,,0.00,0.000000,,2013-04-18 03:11:00,
2013-04-17 20:33:00,47.0,19.0,-100.00,North,357,0.0,13.0,33,0.00,,,0.00,0.000000,,2013-04-18 03:33:00,
2013-04-17 20:43:00,47.0,19.0,-100.00,North,357,0.0,13.0,33,0.00,,,0.00,0.000000,,2013-04-18 03:43:00,
2013-04-17 20:53:00,47.0,19.0,-100.00,North,357,0.0,13.0,33,0.00,,,0.00,0.000000,,2013-04-18 03:53:00,
2013-04-17 21:03:00,47.0,19.0,-100.00,North,357,0.0,13.0,33,0.00,,,0.00,0.000000,,2013-04-18 04:03:00,
2013-04-17 21:11:00,44.0,23.0,-100.00,ESE,119,0.0,11.0,43,0.00,,,0.00,0.000000,,2013-04-18 04:11:00,
2013-04-17 21:33:00,44.0,23.0,-100.00,ESE,119,0.0,11.0,43,0.00,,,0.00,0.000000,,2013-04-18 04:33:00,
2013-04-17 21:43:00,44.0,23.0,-100.00,ESE,119,0.0,11.0,43,0.00,,,0.00,0.000000,,2013-04-18 04:43:00,
2013-04-17 21:53:00,44.0,23.0,-100.00,ESE,119,0.0,11.0,43,0.00,,,0.00,0.000000,,2013-04-18 04:53:00,
2013-04-17 22:02:00,44.0,23.0,-100.00,ESE,119,0.0,11.0,43,0.00,,,0.00,0.000000,,2013-04-18 05:02:00,
2013-04-17 22:11:00,39.0,17.0,-100.00,North,4,2.0,6.0,41,0.00,,,0.00,0.000000,,2013-04-18 05:11:00,
2013-04-17 22:33:00,39.0,17.0,-100.00,North,4,2.0,6.0,41,0.00,,,0.00,0.000000,,2013-04-18 05:33:00,
2013-04-17 22:42:00,39.0,17.0,-100.00,North,4,2.0,6.0,41,0.00,,,0.00,0.000000,,2013-04-18 05:42:00,
2013-04-17 22:52:00,39.0,17.0,-100.00,North,4,2.0,6.0,41,0.00,,,0.00,0.000000,,2013-04-18 05:52:00,
2013-04-17 23:02:00,39.0,17.0,-100.00,North,4,2.0,6.0,41,0.00,,,0.00,0.000000,,2013-04-18 06:02:00,
2013-04-17 23:11:00,39.0,13.0,-100.00,NNE,20,3.0,7.0,34,-99.99,,,0.00,0.000000,,2013-04-18 06:11:00,
2013-04-17 23:32:00,39.0,13.0,-100.00,NNE,20,3.0,7.0,34,-99.99,,,0.00,0.000000,,2013-04-18 06:32:00,
2013-04-17 23:42:00,39.0,13.0,-100.00,NNE,20,3.0,7.0,34,-99.99,,,0.00,0.000000,,2013-04-18 06:42:00,
2013-04-17 23:52:00,39.0,13.0,-100.00,NNE,20,3.0,7.0,34,-99.99,,,0.00,0.000000,,2013-04-18 06:52:00,